Time;durP1;ratioP1;P1;durP2;ratioP2;P2;SDS_P1;SDS_P2;PMS_P1;PMS_P2;Temp;Humidity;BMP_temperature;BMP_pressure;BME280_temperature;BME280_humidity;BME280_pressure;Samples;Min_cycle;Max_cycle;Signal;HPM_P1;HPM_P2
2021/07/09 00:01:57;;;;;;;22.88;4.53;;;18.70;89.30;;;;;;4994704;28;20584;-91
2021/07/09 00:04:23;;;;;;;33.17;3.70;;;18.60;89.20;;;;;;4975266;28;20049;-94
2021/07/09 00:06:49;;;;;;;14.98;3.88;;;18.80;89.40;;;;;;4975945;28;20454;-91
2021/07/09 00:09:14;;;;;;;19.45;3.88;;;18.70;89.40;;;;;;4995944;28;20029;-93
2021/07/09 00:11:41;;;;;;;19.52;4.53;;;18.70;89.50;;;;;;4977845;28;20518;-90
2021/07/09 00:14:08;;;;;;;17.80;4.57;;;18.50;89.40;;;;;;4982255;28;20022;-93
2021/07/09 00:16:34;;;;;;;18.27;4.47;;;18.90;89.70;;;;;;4978745;28;20230;-91
2021/07/09 00:19:02;;;;;;;13.52;3.90;;;18.70;89.70;;;;;;4976518;28;20106;-92
2021/07/09 00:21:27;;;;;;;20.55;4.78;;;18.50;89.60;;;;;;4986311;28;20036;-90
2021/07/09 00:23:53;;;;;;;23.70;4.13;;;18.50;89.70;;;;;;4970923;28;20096;-92
2021/07/09 00:26:18;;;;;;;14.85;3.65;;;18.50;89.80;;;;;;4979610;28;20030;-90
2021/07/09 00:28:44;;;;;;;19.33;3.95;;;18.60;89.80;;;;;;4975315;28;20104;-92
2021/07/09 00:31:10;;;;;;;15.63;3.78;;;18.70;89.80;;;;;;4979688;28;20041;-91
2021/07/09 00:33:35;;;;;;;17.80;3.17;;;18.70;90.00;;;;;;4960059;28;20034;-91
2021/07/09 00:36:01;;;;;;;24.38;3.92;;;18.50;90.00;;;;;;4996006;28;20473;-90
2021/07/09 00:38:26;;;;;;;7.25;2.95;;;18.60;90.00;;;;;;4981494;28;20030;-93
2021/07/09 00:40:52;;;;;;;15.88;3.38;;;18.40;90.00;;;;;;4979398;28;20076;-90
2021/07/09 00:43:17;;;;;;;9.57;3.00;;;18.60;90.10;;;;;;4996000;28;20025;-92
2021/07/09 00:45:43;;;;;;;14.43;2.78;;;18.80;90.20;;;;;;4965772;28;20609;-90
2021/07/09 00:48:08;;;;;;;10.30;3.08;;;18.80;90.20;;;;;;4960335;28;20053;-94
2021/07/09 00:50:34;;;;;;;13.55;2.70;;;18.50;90.20;;;;;;4980043;28;20491;-91
2021/07/09 00:52:59;;;;;;;11.13;2.60;;;18.40;90.10;;;;;;4979799;28;20049;-91
2021/07/09 00:55:25;;;;;;;7.38;2.55;;;18.40;90.20;;;;;;4976448;28;20026;-90
2021/07/09 00:57:52;;;;;;;5.50;1.95;;;18.40;90.20;;;;;;4978973;28;20827;-91
2021/07/09 01:00:18;;;;;;;9.93;2.65;;;18.40;90.20;;;;;;4975028;28;20034;-90
2021/07/09 01:02:44;;;;;;;11.13;2.38;;;18.40;90.20;;;;;;4975439;28;20022;-91
2021/07/09 01:05:10;;;;;;;10.77;2.75;;;18.50;90.20;;;;;;4962083;28;20104;-90
2021/07/09 01:07:36;;;;;;;8.25;2.00;;;18.50;90.20;;;;;;4995607;28;20607;-91
2021/07/09 01:10:02;;;;;;;7.20;2.35;;;18.50;90.30;;;;;;4962424;28;20080;-90
2021/07/09 01:12:28;;;;;;;6.55;2.70;;;18.40;90.20;;;;;;4977215;28;20029;-92
2021/07/09 01:14:53;;;;;;;6.13;2.60;;;18.50;90.30;;;;;;4977750;28;20092;-90
2021/07/09 01:17:19;;;;;;;9.73;2.67;;;18.40;90.30;;;;;;4962375;28;20025;-91
2021/07/09 01:19:44;;;;;;;7.80;1.90;;;18.40;90.30;;;;;;4978243;28;20129;-90
2021/07/09 01:22:10;;;;;;;12.63;2.50;;;18.40;90.30;;;;;;4968748;28;20052;-92
2021/07/09 01:24:36;;;;;;;7.78;2.50;;;18.40;90.30;;;;;;4973705;28;20449;-90
2021/07/09 01:27:02;;;;;;;5.95;2.33;;;18.30;90.30;;;;;;4980936;28;20027;-92
2021/07/09 01:29:28;;;;;;;8.55;2.80;;;18.40;90.40;;;;;;4967865;28;20585;-91
2021/07/09 01:31:53;;;;;;;6.63;2.47;;;18.30;90.40;;;;;;4978156;28;20104;-92
2021/07/09 01:34:19;;;;;;;6.80;2.70;;;18.30;90.40;;;;;;4967948;28;20129;-91
2021/07/09 01:36:44;;;;;;;4.97;1.92;;;18.30;90.40;;;;;;4984367;23;20054;-57
2021/07/09 01:39:10;;;;;;;6.43;2.08;;;18.40;90.50;;;;;;4974504;28;20646;-60
2021/07/09 01:41:35;;;;;;;3.28;1.98;;;18.40;90.50;;;;;;4970662;28;20026;-60
2021/07/09 01:44:02;;;;;;;3.70;2.15;;;18.30;90.50;;;;;;4970727;28;20031;-60
2021/07/09 01:46:27;;;;;;;5.30;2.20;;;18.40;90.50;;;;;;4984462;28;20381;-59
2021/07/09 01:48:53;;;;;;;3.63;1.90;;;18.30;90.50;;;;;;4975591;28;20018;-60
2021/07/09 01:51:18;;;;;;;5.43;2.05;;;18.30;90.60;;;;;;4971713;28;20038;-60
2021/07/09 01:53:44;;;;;;;5.40;2.03;;;18.40;90.60;;;;;;4996373;28;20031;-60
2021/07/09 01:56:09;;;;;;;5.35;2.17;;;18.30;90.60;;;;;;4984805;28;20039;-60
2021/07/09 01:58:35;;;;;;;3.28;1.88;;;18.30;90.60;;;;;;4971987;28;20018;-60
2021/07/09 02:01:00;;;;;;;4.75;1.92;;;18.30;90.60;;;;;;4980816;28;20351;-60
2021/07/09 02:03:26;;;;;;;2.38;1.90;;;18.30;90.60;;;;;;4988740;28;20023;-60
2021/07/09 02:05:52;;;;;;;5.47;2.25;;;18.30;90.60;;;;;;4973575;28;20634;-60
2021/07/09 02:08:17;;;;;;;6.50;1.85;;;18.30;90.60;;;;;;4987835;28;20046;-60
2021/07/09 02:10:43;;;;;;;4.50;1.95;;;18.30;90.60;;;;;;4989004;28;20038;-60
2021/07/09 02:13:09;;;;;;;4.38;1.85;;;18.30;90.70;;;;;;4988457;28;20014;-60
2021/07/09 02:15:37;;;;;;;3.22;1.42;;;18.30;90.70;;;;;;4968603;28;20026;-60
2021/07/09 02:18:03;;;;;;;3.85;1.85;;;18.30;90.70;;;;;;4972158;28;20501;-60
2021/07/09 02:20:29;;;;;;;2.88;1.83;;;18.30;90.80;;;;;;4986714;28;20049;-60
2021/07/09 02:22:58;;;;;;;2.95;1.73;;;18.30;90.80;;;;;;4979864;28;20034;-60
2021/07/09 02:25:24;;;;;;;2.33;1.67;;;18.20;90.80;;;;;;4966184;28;20296;-60
2021/07/09 02:27:50;;;;;;;2.28;1.65;;;18.20;90.80;;;;;;4969274;28;20213;-60
2021/07/09 02:30:17;;;;;;;2.13;1.90;;;18.20;90.80;;;;;;4967488;28;20034;-60
2021/07/09 02:32:42;;;;;;;3.53;1.95;;;18.30;90.90;;;;;;4970157;28;20061;-60
2021/07/09 02:35:10;;;;;;;2.83;1.90;;;18.30;90.90;;;;;;4956008;28;20026;-61
2021/07/09 02:37:36;;;;;;;2.65;2.00;;;18.20;90.90;;;;;;4984080;28;20046;-60
2021/07/09 02:40:02;;;;;;;2.28;1.98;;;18.30;90.90;;;;;;4970850;28;20045;-60
2021/07/09 02:42:28;;;;;;;2.20;1.85;;;18.20;90.90;;;;;;4973683;28;20020;-60
2021/07/09 02:44:53;;;;;;;4.05;1.90;;;18.20;91.00;;;;;;4969792;28;20056;-59
2021/07/09 02:47:19;;;;;;;5.05;2.50;;;18.20;91.00;;;;;;4973509;28;20121;-60
2021/07/09 02:49:44;;;;;;;2.70;1.88;;;18.20;90.90;;;;;;4971220;28;20030;-60
2021/07/09 02:52:10;;;;;;;5.05;2.20;;;18.20;90.90;;;;;;4969974;28;20485;-60
2021/07/09 02:54:35;;;;;;;4.40;2.28;;;18.20;90.90;;;;;;4984182;28;20125;-60
2021/07/09 02:57:01;;;;;;;2.95;2.40;;;18.20;90.90;;;;;;4985316;28;20042;-60
2021/07/09 02:59:26;;;;;;;4.30;2.00;;;18.20;90.90;;;;;;4966621;28;20026;-60
2021/07/09 03:01:52;;;;;;;2.40;1.90;;;18.20;90.90;;;;;;4971322;28;20092;-60
2021/07/09 03:04:17;;;;;;;2.35;1.88;;;18.20;91.00;;;;;;4970660;28;20052;-60
2021/07/09 03:06:43;;;;;;;3.63;1.70;;;18.20;91.00;;;;;;4987270;28;20042;-59
2021/07/09 03:09:09;;;;;;;3.05;1.85;;;18.20;91.00;;;;;;4981227;28;20358;-60
2021/07/09 03:11:35;;;;;;;3.38;1.70;;;18.20;91.00;;;;;;4975739;28;20504;-60
2021/07/09 03:14:01;;;;;;;3.17;2.10;;;18.10;91.30;;;;;;4986853;28;20109;-60
2021/07/09 03:16:27;;;;;;;2.00;1.77;;;18.10;91.00;;;;;;4969868;28;20497;-61
2021/07/09 03:18:52;;;;;;;3.83;1.70;;;18.10;91.00;;;;;;4987162;28;20038;-60
2021/07/09 03:21:18;;;;;;;3.45;1.70;;;18.20;91.00;;;;;;4985834;28;20027;-60
2021/07/09 03:23:43;;;;;;;3.70;1.50;;;18.10;91.10;;;;;;4969018;28;20038;-60
2021/07/09 03:26:09;;;;;;;2.03;1.60;;;18.10;91.10;;;;;;4988136;28;20045;-59
2021/07/09 03:28:34;;;;;;;5.72;1.83;;;18.10;91.10;;;;;;4970029;28;20030;-61
2021/07/09 03:31:00;;;;;;;3.60;1.40;;;18.10;91.10;;;;;;5002167;28;20022;-60
2021/07/09 03:33:25;;;;;;;3.10;1.98;;;18.10;91.10;;;;;;4968944;28;20114;-61
2021/07/09 03:35:52;;;;;;;2.53;1.60;;;18.10;91.20;;;;;;4960505;28;20133;-60
2021/07/09 03:38:18;;;;;;;1.85;1.60;;;18.10;91.20;;;;;;4962581;28;20042;-60
2021/07/09 03:40:44;;;;;;;2.75;1.38;;;18.00;91.20;;;;;;4970283;28;20138;-60
2021/07/09 03:43:09;;;;;;;3.78;1.40;;;18.10;91.20;;;;;;4976292;28;20504;-60
2021/07/09 03:45:35;;;;;;;4.65;1.70;;;18.10;91.20;;;;;;4988640;28;20049;-60
2021/07/09 03:48:00;;;;;;;2.25;1.40;;;18.00;91.20;;;;;;4965764;28;20045;-60
2021/07/09 03:50:26;;;;;;;1.40;1.30;;;18.00;91.20;;;;;;4983070;28;20065;-60
2021/07/09 03:52:52;;;;;;;5.22;1.65;;;18.10;91.20;;;;;;4967120;28;20101;-61
2021/07/09 03:55:17;;;;;;;2.25;1.60;;;18.10;91.10;;;;;;4982207;28;20038;-60
2021/07/09 03:57:43;;;;;;;2.85;2.13;;;18.10;91.10;;;;;;4984051;28;20045;-60
2021/07/09 04:00:09;;;;;;;4.15;2.72;;;18.10;91.10;;;;;;4968930;28;20645;-61
2021/07/09 04:02:35;;;;;;;3.10;2.33;;;18.10;91.10;;;;;;4967103;28;20141;-60
2021/07/09 04:05:00;;;;;;;3.50;2.40;;;18.00;91.00;;;;;;4983701;28;20030;-60
2021/07/09 04:07:26;;;;;;;3.85;2.70;;;18.10;91.10;;;;;;4977191;28;20378;-60
2021/07/09 04:09:51;;;;;;;3.60;2.45;;;18.00;91.10;;;;;;4968333;28;20043;-57
2021/07/09 04:12:17;;;;;;;3.42;2.45;;;18.00;91.10;;;;;;4983152;28;20108;-61
2021/07/09 04:14:42;;;;;;;3.70;2.42;;;18.00;91.20;;;;;;4986778;28;20438;-58
2021/07/09 04:17:08;;;;;;;3.58;2.38;;;18.00;91.10;;;;;;4980878;28;20041;-60
2021/07/09 04:19:33;;;;;;;4.70;2.00;;;18.00;91.10;;;;;;4972157;28;20561;-58
2021/07/09 04:21:59;;;;;;;3.92;2.03;;;18.00;91.10;;;;;;4986936;28;20508;-58
2021/07/09 04:24:24;;;;;;;2.22;2.03;;;18.00;91.10;;;;;;4967904;28;20137;-58
2021/07/09 04:26:50;;;;;;;2.25;1.85;;;18.00;91.10;;;;;;4968003;28;20036;-58
2021/07/09 04:29:15;;;;;;;2.20;2.00;;;18.00;91.10;;;;;;4970238;28;20037;-58
2021/07/09 04:31:41;;;;;;;4.40;2.30;;;18.00;91.10;;;;;;4975516;28;20030;-58
2021/07/09 04:34:06;;;;;;;3.40;1.77;;;18.00;91.00;;;;;;4968852;28;20025;-58
2021/07/09 04:36:32;;;;;;;2.55;2.08;;;18.00;91.00;;;;;;4967688;28;20126;-58
2021/07/09 04:38:57;;;;;;;2.00;1.63;;;18.00;91.00;;;;;;4952681;28;20844;-58
2021/07/09 04:41:23;;;;;;;2.08;1.88;;;18.00;91.00;;;;;;4952964;28;20522;-61
2021/07/09 04:43:48;;;;;;;2.47;1.80;;;18.00;91.00;;;;;;4979250;28;20038;-58
2021/07/09 04:46:14;;;;;;;2.47;1.70;;;18.00;91.00;;;;;;4969284;28;20033;-57
2021/07/09 04:48:39;;;;;;;4.28;1.90;;;18.00;91.00;;;;;;4970175;28;20033;-58
2021/07/09 04:51:05;;;;;;;1.70;1.60;;;18.00;91.00;;;;;;4968453;28;20749;-60
2021/07/09 04:53:30;;;;;;;3.47;1.92;;;18.00;91.30;;;;;;4953963;28;20473;-61
2021/07/09 04:55:56;;;;;;;2.83;1.63;;;18.00;91.00;;;;;;4969089;28;20477;-58
2021/07/09 04:58:22;;;;;;;3.15;1.95;;;18.00;91.00;;;;;;4970097;28;20050;-58
2021/07/09 05:00:48;;;;;;;3.92;1.67;;;18.00;91.00;;;;;;4988402;28;20121;-58
2021/07/09 05:03:13;;;;;;;4.13;1.75;;;18.00;91.00;;;;;;4988818;28;20076;-58
2021/07/09 05:05:39;;;;;;;4.93;1.85;;;18.00;91.00;;;;;;4975923;28;20030;-58
2021/07/09 05:08:04;;;;;;;6.70;2.05;;;18.00;91.00;;;;;;4989747;28;20122;-61
2021/07/09 05:10:30;;;;;;;5.90;2.00;;;18.00;91.00;;;;;;4972850;28;20446;-58
2021/07/09 05:12:56;;;;;;;2.15;1.92;;;18.00;90.90;;;;;;4986721;28;20118;-58
2021/07/09 05:15:21;;;;;;;2.90;1.85;;;18.00;90.90;;;;;;4988419;28;20403;-58
2021/07/09 05:17:47;;;;;;;4.05;1.90;;;18.00;90.90;;;;;;4989275;28;20050;-58
2021/07/09 05:20:12;;;;;;;5.97;2.00;;;18.00;90.90;;;;;;4985213;28;20124;-58
2021/07/09 05:22:38;;;;;;;6.80;2.00;;;18.00;90.90;;;;;;4970828;28;20034;-58
2021/07/09 05:25:05;;;;;;;5.28;2.20;;;18.00;90.90;;;;;;4977551;28;20547;-58
2021/07/09 05:27:31;;;;;;;5.75;2.15;;;18.00;91.00;;;;;;4973092;28;20041;-58
2021/07/09 05:29:57;;;;;;;4.65;2.30;;;18.00;91.10;;;;;;4974973;28;20024;-59
2021/07/09 05:32:24;;;;;;;8.77;2.40;;;18.00;91.10;;;;;;4969559;28;20042;-58
2021/07/09 05:34:51;;;;;;;6.25;3.55;;;18.00;91.10;;;;;;4999935;28;20027;-58
2021/07/09 05:37:16;;;;;;;8.32;3.38;;;18.00;91.10;;;;;;4975586;28;20055;-58
2021/07/09 05:39:42;;;;;;;8.43;5.57;;;18.00;91.00;;;;;;4964210;28;20055;-57
2021/07/09 05:42:07;;;;;;;12.27;6.32;;;18.10;91.10;;;;;;4964351;28;20049;-58
2021/07/09 05:44:33;;;;;;;9.23;5.78;;;18.10;91.10;;;;;;4970606;28;20105;-57
2021/07/09 05:46:58;;;;;;;9.85;4.88;;;18.10;91.00;;;;;;4968095;28;20525;-58
2021/07/09 05:49:24;;;;;;;12.27;4.72;;;18.10;91.00;;;;;;4948255;28;20070;-58
2021/07/09 05:51:49;;;;;;;8.82;5.25;;;18.10;91.00;;;;;;4979884;28;20551;-58
2021/07/09 05:54:15;;;;;;;13.07;4.68;;;18.10;91.00;;;;;;4968560;28;20482;-58
2021/07/09 05:56:41;;;;;;;8.93;4.00;;;18.10;91.00;;;;;;4963999;28;20042;-57
2021/07/09 05:59:06;;;;;;;16.70;5.20;;;18.10;91.00;;;;;;4968681;28;20092;-58
2021/07/09 06:01:32;;;;;;;17.42;4.82;;;18.10;91.00;;;;;;4976222;28;20169;-59
2021/07/09 06:03:58;;;;;;;17.15;4.35;;;18.10;91.00;;;;;;4966863;28;20030;-58
2021/07/09 06:06:23;;;;;;;11.95;5.10;;;18.10;90.90;;;;;;4981068;28;20042;-58
2021/07/09 06:08:48;;;;;;;13.38;4.55;;;18.10;90.90;;;;;;4958872;28;20153;-60
2021/07/09 06:11:14;;;;;;;11.52;4.65;;;18.10;90.90;;;;;;4963729;28;20466;-59
2021/07/09 06:13:40;;;;;;;14.55;4.47;;;18.10;90.80;;;;;;4956457;28;20030;-58
2021/07/09 06:16:05;;;;;;;14.15;4.00;;;18.10;91.00;;;;;;4968553;28;20103;-58
2021/07/09 06:18:31;;;;;;;12.93;4.45;;;18.10;91.00;;;;;;4965319;28;20117;-58
2021/07/09 06:20:57;;;;;;;15.73;4.30;;;18.10;90.90;;;;;;4980725;28;20335;-58
2021/07/09 06:23:24;;;;;;;11.82;3.90;;;18.10;90.90;;;;;;4963650;28;20037;-58
2021/07/09 06:25:50;;;;;;;34.38;5.57;;;18.20;90.90;;;;;;4966414;28;20027;-58
2021/07/09 06:28:15;;;;;;;37.25;5.20;;;18.20;91.20;;;;;;4967430;28;20378;-58
2021/07/09 06:30:41;;;;;;;15.15;5.00;;;18.20;91.00;;;;;;4966089;28;20478;-58
2021/07/09 06:33:08;;;;;;;28.30;4.82;;;18.20;91.00;;;;;;4960867;28;20038;-58
2021/07/09 06:35:35;;;;;;;23.73;4.55;;;18.20;91.10;;;;;;4975842;28;20034;-58
2021/07/09 06:38:00;;;;;;;39.03;5.70;;;18.20;91.10;;;;;;4983596;28;20121;-58
2021/07/09 06:40:26;;;;;;;24.90;5.88;;;18.20;91.10;;;;;;5000785;28;20106;-58
2021/07/09 06:42:52;;;;;;;18.67;3.95;;;18.20;91.10;;;;;;4987763;28;20140;-58
2021/07/09 06:45:18;;;;;;;22.92;4.20;;;18.20;91.10;;;;;;4968752;28;20081;-59
2021/07/09 06:47:44;;;;;;;16.85;3.70;;;18.20;91.00;;;;;;4986724;28;20022;-58
2021/07/09 06:50:10;;;;;;;17.45;3.80;;;18.20;91.00;;;;;;4992124;28;20061;-58
2021/07/09 06:52:35;;;;;;;35.92;5.60;;;18.20;91.10;;;;;;4984178;28;20096;-58
2021/07/09 06:55:02;;;;;;;49.00;6.18;;;18.30;91.10;;;;;;4969867;28;20337;-58
2021/07/09 06:57:27;;;;;;;42.42;5.55;;;18.30;91.10;;;;;;4963679;28;20117;-58
2021/07/09 06:59:52;;;;;;;36.72;5.47;;;18.30;91.10;;;;;;4989729;28;20462;-58
2021/07/09 07:02:19;;;;;;;33.35;4.90;;;18.30;91.10;;;;;;4978272;28;20046;-58
2021/07/09 07:04:45;;;;;;;26.92;4.63;;;18.40;91.10;;;;;;4984711;28;20334;-57
2021/07/09 07:07:10;;;;;;;22.05;3.80;;;18.40;91.10;;;;;;4984722;28;20027;-58
2021/07/09 07:09:38;;;;;;;20.55;4.07;;;18.40;91.10;;;;;;4983377;28;20027;-58
2021/07/09 07:12:05;;;;;;;17.73;3.50;;;18.40;91.20;;;;;;4981005;28;20554;-58
2021/07/09 07:14:31;;;;;;;18.88;3.58;;;18.40;91.20;;;;;;4984462;28;20030;-58
2021/07/09 07:16:57;;;;;;;20.02;4.68;;;18.40;91.30;;;;;;4977367;28;20038;-58
2021/07/09 07:19:22;;;;;;;28.15;4.35;;;18.40;91.40;;;;;;4971398;28;20031;-58
2021/07/09 07:21:48;;;;;;;31.95;5.32;;;18.40;91.50;;;;;;4987345;28;20030;-58
2021/07/09 07:24:13;;;;;;;33.65;4.65;;;18.40;91.50;;;;;;4984231;28;20062;-57
2021/07/09 07:26:39;;;;;;;23.95;3.95;;;18.40;91.60;;;;;;4963154;28;20030;-59
2021/07/09 07:29:04;;;;;;;22.58;4.32;;;18.40;91.50;;;;;;4979849;28;20042;-58
2021/07/09 07:31:30;;;;;;;55.35;6.03;;;18.40;91.50;;;;;;4984366;28;20073;-58
2021/07/09 07:33:56;;;;;;;61.15;5.18;;;18.40;91.60;;;;;;4980835;28;20057;-58
2021/07/09 07:36:21;;;;;;;42.53;6.00;;;18.40;91.70;;;;;;4950051;28;20042;-58
2021/07/09 07:38:47;;;;;;;71.30;6.55;;;18.40;91.60;;;;;;4992178;28;20049;-59
2021/07/09 07:41:14;;;;;;;64.78;7.18;;;18.40;91.70;;;;;;4952899;28;20496;-58
2021/07/09 07:43:42;;;;;;;48.55;6.40;;;18.50;91.80;;;;;;4990244;28;20030;-58
2021/07/09 07:46:08;;;;;;;47.08;5.90;;;18.50;91.80;;;;;;4985684;28;20053;-59
2021/07/09 07:48:34;;;;;;;49.03;5.03;;;18.50;91.70;;;;;;4977248;28;20080;-58
2021/07/09 07:51:00;;;;;;;52.08;5.88;;;18.60;91.60;;;;;;4983531;28;20030;-58
2021/07/09 07:53:25;;;;;;;41.38;5.10;;;18.60;91.50;;;;;;4988207;28;20474;-58
2021/07/09 07:55:51;;;;;;;36.97;4.78;;;18.60;91.40;;;;;;4982978;28;20025;-59
2021/07/09 07:58:17;;;;;;;35.80;5.43;;;18.60;91.40;;;;;;4979238;28;20027;-60
2021/07/09 08:00:42;;;;;;;33.72;4.57;;;18.60;91.40;;;;;;4984447;28;20034;-61
2021/07/09 08:03:08;;;;;;;33.40;4.40;;;18.60;91.30;;;;;;4983287;28;20042;-61
2021/07/09 08:05:33;;;;;;;31.83;4.30;;;18.70;91.30;;;;;;4992915;28;20034;-61
2021/07/09 08:07:59;;;;;;;47.03;4.80;;;18.70;91.40;;;;;;4990129;28;20163;-61
2021/07/09 08:10:25;;;;;;;41.03;5.25;;;18.70;91.30;;;;;;4984105;28;20062;-61
2021/07/09 08:12:51;;;;;;;50.40;5.68;;;18.80;91.40;;;;;;4983697;28;20112;-59
2021/07/09 08:15:17;;;;;;;40.95;5.38;;;18.80;91.30;;;;;;4984134;28;20078;-58
2021/07/09 08:17:43;;;;;;;40.17;5.63;;;18.80;91.30;;;;;;4979543;28;20065;-58
2021/07/09 08:20:09;;;;;;;43.17;4.90;;;18.80;91.20;;;;;;4965731;28;20034;-58
2021/07/09 08:22:36;;;;;;;57.25;5.50;;;18.90;91.20;;;;;;4953553;28;20026;-58
2021/07/09 08:25:03;;;;;;;50.13;5.53;;;18.90;91.30;;;;;;4984689;28;20018;-58
2021/07/09 08:27:29;;;;;;;57.13;6.00;;;18.90;91.20;;;;;;4967179;28;20109;-58
2021/07/09 08:29:54;;;;;;;66.57;7.13;;;19.00;91.20;;;;;;4981603;28;20632;-58
2021/07/09 08:32:20;;;;;;;68.07;7.38;;;19.00;91.10;;;;;;4993792;28;20064;-58
2021/07/09 08:34:45;;;;;;;42.17;5.47;;;19.10;91.30;;;;;;4986287;28;20415;-58
2021/07/09 08:37:11;;;;;;;35.65;4.90;;;19.10;91.20;;;;;;4983643;28;20082;-58
2021/07/09 08:39:36;;;;;;;50.47;6.35;;;19.10;91.10;;;;;;4977504;28;20141;-58
2021/07/09 08:42:02;;;;;;;55.10;6.28;;;19.10;91.10;;;;;;4982895;28;20052;-58
2021/07/09 08:44:27;;;;;;;137.82;11.50;;;19.20;91.00;;;;;;4996298;28;20040;-58
2021/07/09 08:46:55;;;;;;;111.85;12.50;;;19.20;91.10;;;;;;4983862;28;20081;-58
2021/07/09 08:49:22;;;;;;;72.53;7.80;;;19.30;91.20;;;;;;4980507;28;20088;-58
2021/07/09 08:51:47;;;;;;;59.15;6.05;;;19.30;91.00;;;;;;4983442;28;20093;-58
2021/07/09 08:54:14;;;;;;;95.97;10.50;;;19.30;90.90;;;;;;4975771;28;20022;-58
2021/07/09 08:56:40;;;;;;;60.10;7.35;;;19.60;91.00;;;;;;4965284;28;20261;-58
2021/07/09 08:59:05;;;;;;;75.53;8.23;;;19.40;90.80;;;;;;4981221;28;20030;-58
2021/07/09 09:01:31;;;;;;;76.72;6.57;;;19.50;90.70;;;;;;4984061;28;20062;-58
2021/07/09 09:04:07;;;;;;;141.07;12.23;;;19.50;90.60;;;;;;4981972;28;20686;-58
2021/07/09 09:06:32;;;;;;;66.07;7.38;;;19.50;90.40;;;;;;4979086;28;20071;-58
2021/07/09 09:09:17;;;;;;;75.65;7.25;;;19.50;90.20;;;;;;4982257;28;20030;-59
2021/07/09 09:21:31;;;;;;;81.68;10.07;;;19.60;90.20;;;;;;4978727;28;20430;-58
2021/07/09 09:29:52;;;;;;;488.90;39.92;;;19.60;90.20;;;;;;4982219;28;20454;-58
2021/07/09 09:32:36;;;;;;;162.43;15.32;;;19.70;90.20;;;;;;4994998;28;20030;-58
2021/07/09 09:35:02;;;;;;;135.98;13.68;;;19.70;90.50;;;;;;4982379;28;20100;-58
2021/07/09 09:38:05;;;;;;;127.13;13.88;;;19.70;90.20;;;;;;4978868;28;20058;-59
2021/07/09 09:40:50;;;;;;;201.85;18.70;;;19.70;90.20;;;;;;4980326;28;20093;-59
2021/07/09 09:43:34;;;;;;;169.00;18.67;;;19.80;90.30;;;;;;4976696;28;20034;-58
2021/07/09 09:49:11;;;;;;;162.88;16.70;;;19.80;90.20;;;;;;4985666;28;20057;-59
2021/07/09 09:51:55;;;;;;;149.15;14.35;;;19.80;89.80;;;;;;4963020;28;20552;-59
2021/07/09 09:57:06;;;;;;;148.27;15.70;;;19.90;89.70;;;;;;4983657;28;20064;-59
2021/07/09 09:59:32;;;;;;;138.52;14.20;;;19.90;89.50;;;;;;4966322;28;20045;-58
2021/07/09 10:02:05;;;;;;;195.35;17.50;;;19.90;89.40;;;;;;4966042;28;20042;-59
2021/07/09 10:04:32;;;;;;;104.00;11.88;;;20.00;89.60;;;;;;4966065;28;20113;-61
2021/07/09 10:06:57;;;;;;;94.68;12.02;;;20.00;89.00;;;;;;4983490;28;20156;-58
2021/07/09 10:09:24;;;;;;;88.95;11.10;;;20.10;88.80;;;;;;4979998;28;20519;-58
2021/07/09 10:11:49;;;;;;;94.68;10.93;;;20.10;88.30;;;;;;4984155;28;20028;-59
2021/07/09 10:14:17;;;;;;;112.97;10.68;;;20.10;87.70;;;;;;4961483;28;20046;-59
2021/07/09 10:16:44;;;;;;;107.38;9.65;;;20.20;87.10;;;;;;4947704;28;21582;-59
2021/07/09 10:19:11;;;;;;;73.00;9.82;;;20.20;86.80;;;;;;4981378;28;20042;-59
2021/07/09 10:21:40;;;;;;;98.13;11.27;;;20.30;86.60;;;;;;4981772;28;20081;-58
2021/07/09 10:24:07;;;;;;;65.40;8.18;;;20.30;86.40;;;;;;4978341;28;20026;-59
2021/07/09 10:26:33;;;;;;;63.08;8.20;;;20.40;86.30;;;;;;4975825;28;20022;-59
2021/07/09 10:29:12;;;;;;;78.60;9.45;;;20.50;86.40;;;;;;4979093;28;20126;-59
2021/07/09 10:31:38;;;;;;;62.60;7.97;;;20.50;85.80;;;;;;4979936;28;20088;-59
2021/07/09 10:34:30;;;;;;;78.60;8.95;;;20.50;85.50;;;;;;4966214;28;20361;-59
2021/07/09 10:37:03;;;;;;;74.00;8.93;;;20.50;85.60;;;;;;4950159;28;20782;-58
2021/07/09 10:39:32;;;;;;;45.72;8.05;;;20.50;84.80;;;;;;4981919;28;20041;-58
2021/07/09 10:42:24;;;;;;;66.00;8.90;;;20.60;84.50;;;;;;4982929;28;20145;-58
2021/07/09 10:45:11;;;;;;;73.70;9.88;;;20.60;84.30;;;;;;5001259;28;20042;-58
2021/07/09 10:47:54;;;;;;;74.90;8.40;;;20.60;83.70;;;;;;4977546;28;20057;-58
2021/07/09 10:50:20;;;;;;;85.03;8.77;;;20.70;82.70;;;;;;4983640;28;20028;-58
2021/07/09 10:52:54;;;;;;;68.40;9.27;;;20.70;82.30;;;;;;4981749;28;20050;-59
2021/07/09 10:55:28;;;;;;;78.72;9.55;;;20.80;82.00;;;;;;4960588;28;20576;-59
2021/07/09 10:58:19;;;;;;;87.13;10.98;;;20.80;81.00;;;;;;4976392;28;20048;-59
2021/07/09 11:01:17;;;;;;;92.55;9.52;;;20.80;80.00;;;;;;4993566;28;20038;-58
2021/07/09 11:03:42;;;;;;;73.38;8.90;;;20.90;79.70;;;;;;4974882;28;20022;-59
2021/07/09 11:06:33;;;;;;;70.13;8.68;;;20.90;79.60;;;;;;4979954;28;20048;-58
2021/07/09 11:09:03;;;;;;;56.25;7.80;;;21.00;79.60;;;;;;4975689;28;20571;-59
2021/07/09 11:11:37;;;;;;;58.17;8.15;;;21.10;79.80;;;;;;4944562;28;20074;-58
2021/07/09 11:14:07;;;;;;;67.18;8.82;;;21.10;79.60;;;;;;4976689;28;20026;-59
2021/07/09 11:16:35;;;;;;;62.17;7.72;;;21.20;79.50;;;;;;4978839;28;20133;-61
2021/07/09 11:19:02;;;;;;;62.78;7.13;;;21.20;79.10;;;;;;4981183;28;20057;-59
2021/07/09 11:21:31;;;;;;;52.85;6.68;;;21.30;78.70;;;;;;4980024;28;20023;-58
2021/07/09 11:24:09;;;;;;;55.38;6.72;;;21.40;78.50;;;;;;4976362;28;20399;-58
2021/07/09 11:26:35;;;;;;;55.75;7.22;;;21.50;78.20;;;;;;4993555;28;20517;-58
2021/07/09 11:29:34;;;;;;;77.43;8.18;;;21.60;78.20;;;;;;4978845;28;20080;-59
2021/07/09 11:32:07;;;;;;;42.42;5.80;;;21.60;77.70;;;;;;4988816;28;20450;-59
2021/07/09 11:34:43;;;;;;;40.60;5.28;;;21.70;77.40;;;;;;4976347;28;20037;-59
2021/07/09 11:37:11;;;;;;;24.35;4.30;;;21.80;77.10;;;;;;4980688;28;20596;-59
2021/07/09 11:39:41;;;;;;;40.35;4.72;;;21.80;76.80;;;;;;4980739;28;20489;-59
2021/07/09 11:42:07;;;;;;;33.45;4.30;;;21.90;76.40;;;;;;4982241;28;20030;-59
2021/07/09 11:44:49;;;;;;;51.67;5.57;;;21.90;75.40;;;;;;4991800;28;20057;-61
2021/07/09 11:47:22;;;;;;;46.50;4.70;;;22.00;75.20;;;;;;4984475;28;20026;-58
2021/07/09 11:49:58;;;;;;;29.27;4.50;;;22.00;75.00;;;;;;4952721;28;20458;-59
2021/07/09 11:52:27;;;;;;;39.33;4.75;;;22.10;74.80;;;;;;4972504;28;20049;-59
2021/07/09 11:54:54;;;;;;;39.03;5.40;;;22.20;74.50;;;;;;4964620;28;20038;-59
2021/07/09 11:57:21;;;;;;;20.95;3.88;;;22.20;74.20;;;;;;4981299;28;20034;-59
2021/07/09 11:59:47;;;;;;;34.67;4.47;;;22.30;73.50;;;;;;4984005;28;20109;-59
2021/07/09 12:02:20;;;;;;;31.52;3.90;;;22.30;73.20;;;;;;4986367;28;20048;-59
2021/07/09 12:05:03;;;;;;;87.68;8.05;;;22.30;72.70;;;;;;4985313;28;20338;-59
2021/07/09 12:07:38;;;;;;;32.22;4.63;;;22.30;73.30;;;;;;4979658;28;20528;-59
2021/07/09 12:10:23;;;;;;;40.13;4.93;;;22.30;73.40;;;;;;4985461;28;20577;-58
2021/07/09 12:12:53;;;;;;;78.90;7.00;;;22.30;73.60;;;;;;4982731;28;20053;-58
2021/07/09 12:15:19;;;;;;;56.88;4.80;;;22.40;73.10;;;;;;4988469;28;20034;-59
2021/07/09 12:17:46;;;;;;;22.50;3.92;;;22.50;72.50;;;;;;4976502;28;20042;-59
2021/07/09 12:20:32;;;;;;;34.58;4.93;;;22.60;71.80;;;;;;4971288;28;20041;-59
2021/07/09 12:23:14;;;;;;;37.35;5.55;;;22.70;71.70;;;;;;4987868;28;20022;-59
2021/07/09 12:25:44;;;;;;;51.20;5.40;;;22.80;71.80;;;;;;4981698;28;21021;-59
2021/07/09 12:28:12;;;;;;;41.03;4.25;;;22.80;71.20;;;;;;4987021;28;20092;-59
2021/07/09 12:30:44;;;;;;;27.75;3.95;;;22.80;70.40;;;;;;4982117;28;20058;-59
2021/07/09 12:33:13;;;;;;;43.00;4.57;;;22.80;69.80;;;;;;4988503;28;20161;-59
2021/07/09 12:35:39;;;;;;;45.50;6.05;;;22.80;70.20;;;;;;4983568;28;20114;-59
2021/07/09 12:38:12;;;;;;;72.50;6.20;;;22.90;70.00;;;;;;4981316;28;20145;-59
2021/07/09 12:40:46;;;;;;;43.53;5.32;;;22.90;70.50;;;;;;4982280;28;20030;-59
2021/07/09 12:43:24;;;;;;;41.47;5.03;;;23.00;70.20;;;;;;4982392;28;20494;-59
2021/07/09 12:46:12;;;;;;;84.57;8.80;;;23.00;70.50;;;;;;4953776;28;20037;-58
2021/07/09 12:48:45;;;;;;;65.82;7.57;;;23.10;69.50;;;;;;4983067;28;20030;-59
2021/07/09 12:51:18;;;;;;;47.50;6.13;;;23.10;69.30;;;;;;4980793;28;20470;-59
2021/07/09 12:53:52;;;;;;;46.53;6.05;;;23.20;69.00;;;;;;4980337;28;20458;-59
2021/07/09 12:56:18;;;;;;;55.65;5.85;;;23.20;69.00;;;;;;4980285;28;20494;-59
2021/07/09 12:58:44;;;;;;;55.20;5.35;;;23.30;69.30;;;;;;4963736;28;20030;-58
2021/07/09 13:01:10;;;;;;;45.80;5.28;;;23.30;69.10;;;;;;4980472;28;20030;-59
2021/07/09 13:03:40;;;;;;;75.93;7.93;;;23.30;69.20;;;;;;4980651;28;20046;-59
2021/07/09 13:06:07;;;;;;;49.85;6.07;;;23.20;69.00;;;;;;4979673;28;20046;-59